Time;durP1;ratioP1;P1;durP2;ratioP2;P2;SDS_P1;SDS_P2;PMS_P1;PMS_P2;Temp;Humidity;BMP_temperature;BMP_pressure;BME280_temperature;BME280_humidity;BME280_pressure;Samples;Min_cycle;Max_cycle;Signal;HPM_P1;HPM_P2
2023/07/11 00:01:12;;;;;;;6.40;5.90;;;30.10;58.80;;;;;;5057029;28;20454;-70
2023/07/11 00:03:41;;;;;;;5.97;5.57;;;30.10;58.90;;;;;;5052286;28;20462;-68
2023/07/11 00:06:13;;;;;;;6.07;5.67;;;30.10;58.90;;;;;;5033603;28;20796;-68
2023/07/11 00:08:41;;;;;;;6.90;6.47;;;30.10;58.90;;;;;;5033144;28;20439;-68
2023/07/11 00:11:11;;;;;;;6.67;6.07;;;30.10;58.80;;;;;;5050715;28;20443;-68
2023/07/11 00:13:41;;;;;;;6.97;6.37;;;30.10;58.90;;;;;;5019765;28;20811;-72
2023/07/11 00:16:12;;;;;;;7.00;6.40;;;30.00;58.80;;;;;;5038950;28;20500;-70
2023/07/11 00:18:41;;;;;;;6.73;6.23;;;30.00;58.80;;;;;;5040624;28;20521;-71
2023/07/11 00:21:09;;;;;;;6.47;5.97;;;30.00;58.80;;;;;;5033644;28;20931;-68
2023/07/11 00:23:38;;;;;;;6.07;5.67;;;30.00;58.80;;;;;;5044424;28;20461;-70
2023/07/11 00:26:06;;;;;;;6.20;5.70;;;30.00;58.80;;;;;;5044040;28;20531;-69
2023/07/11 00:28:34;;;;;;;6.93;6.43;;;30.00;58.80;;;;;;5032882;28;20491;-71
2023/07/11 00:31:05;;;;;;;6.07;5.53;;;30.00;58.80;;;;;;5040162;28;20520;-70
2023/07/11 00:33:33;;;;;;;6.80;6.30;;;30.00;58.80;;;;;;5041115;28;20495;-68
2023/07/11 00:36:01;;;;;;;6.40;5.90;;;30.00;58.80;;;;;;5053126;28;20485;-68
2023/07/11 00:38:30;;;;;;;6.60;6.00;;;30.00;58.80;;;;;;5052372;28;20528;-69
2023/07/11 00:40:58;;;;;;;6.30;5.80;;;30.00;58.70;;;;;;5046088;28;20462;-68
2023/07/11 00:43:27;;;;;;;6.03;5.53;;;30.00;58.70;;;;;;5051804;28;20537;-71
2023/07/11 00:46:02;;;;;;;6.00;5.40;;;30.00;58.70;;;;;;5053419;28;20466;-73
2023/07/11 00:48:35;;;;;;;5.60;5.20;;;30.00;58.70;;;;;;5033672;28;20908;-68
2023/07/11 00:51:05;;;;;;;6.47;5.93;;;30.00;58.70;;;;;;5053093;28;20500;-69
2023/07/11 00:53:34;;;;;;;6.57;6.10;;;30.00;58.70;;;;;;5047496;28;20954;-68
2023/07/11 00:56:06;;;;;;;6.10;5.60;;;30.00;58.70;;;;;;5040276;28;20551;-70
2023/07/11 00:58:38;;;;;;;6.00;5.60;;;30.00;58.70;;;;;;5038104;28;20477;-68
2023/07/11 01:01:07;;;;;;;6.23;5.83;;;30.00;58.70;;;;;;5044761;28;20530;-73
2023/07/11 01:03:37;;;;;;;7.27;5.80;;;29.90;58.70;;;;;;5043228;28;20457;-74
2023/07/11 01:06:12;;;;;;;6.43;5.93;;;29.90;58.70;;;;;;5029633;28;20473;-69
2023/07/11 01:08:40;;;;;;;5.77;5.33;;;29.90;58.70;;;;;;5050921;28;20453;-69
2023/07/11 01:11:09;;;;;;;6.23;5.73;;;29.90;58.70;;;;;;5041264;28;20492;-69
2023/07/11 01:13:38;;;;;;;6.33;5.83;;;29.90;58.70;;;;;;5030667;28;20993;-68
2023/07/11 01:16:07;;;;;;;6.50;5.97;;;29.90;58.80;;;;;;5043813;28;20824;-72
2023/07/11 01:18:38;;;;;;;5.70;5.30;;;29.90;58.80;;;;;;5032706;28;20566;-71
2023/07/11 01:21:08;;;;;;;10.00;6.40;;;29.90;58.80;;;;;;5032998;28;20431;-69
2023/07/11 01:23:37;;;;;;;6.30;5.77;;;29.80;58.80;;;;;;5031074;28;20476;-70
2023/07/11 01:26:08;;;;;;;6.00;5.60;;;29.80;58.80;;;;;;5032984;28;20473;-70
2023/07/11 01:28:37;;;;;;;6.30;5.80;;;29.80;58.90;;;;;;5051757;28;20465;-71
2023/07/11 01:31:05;;;;;;;6.50;6.00;;;29.80;58.90;;;;;;5048837;28;20477;-68
2023/07/11 01:33:34;;;;;;;5.60;5.20;;;29.80;58.90;;;;;;5050598;28;22351;-73
2023/07/11 01:36:04;;;;;;;6.33;5.90;;;29.80;58.90;;;;;;5060124;28;20482;-69
2023/07/11 01:38:32;;;;;;;6.00;5.60;;;29.80;58.90;;;;;;5056442;28;20523;-73
2023/07/11 01:41:03;;;;;;;8.20;5.93;;;29.80;59.00;;;;;;5052319;28;20519;-68
2023/07/11 01:43:31;;;;;;;6.20;5.60;;;29.80;59.00;;;;;;5028481;28;20469;-68
2023/07/11 01:46:00;;;;;;;7.13;6.57;;;29.80;59.00;;;;;;5034324;28;20474;-68
2023/07/11 01:48:30;;;;;;;6.47;5.97;;;29.70;59.00;;;;;;5039974;28;20462;-68
2023/07/11 01:50:58;;;;;;;6.37;5.97;;;29.70;59.00;;;;;;5052207;28;20499;-68
2023/07/11 01:53:26;;;;;;;6.60;6.10;;;29.70;59.10;;;;;;5048721;28;20538;-68
2023/07/11 01:55:58;;;;;;;6.80;6.20;;;29.70;59.00;;;;;;5048300;28;20531;-68
2023/07/11 01:58:29;;;;;;;7.07;6.53;;;29.70;59.10;;;;;;5050468;28;20904;-69
2023/07/11 02:00:58;;;;;;;6.77;6.20;;;29.70;59.10;;;;;;5032470;28;20470;-69
2023/07/11 02:03:26;;;;;;;6.10;5.70;;;29.60;59.10;;;;;;5040492;28;20465;-73
2023/07/11 02:05:55;;;;;;;6.50;6.00;;;29.60;59.20;;;;;;5040986;28;20450;-68
2023/07/11 02:08:24;;;;;;;6.57;6.17;;;29.60;59.20;;;;;;5046137;28;20961;-67
2023/07/11 02:10:52;;;;;;;6.23;5.83;;;29.60;59.20;;;;;;5045467;28;20493;-69
2023/07/11 02:13:20;;;;;;;6.70;6.30;;;29.60;59.20;;;;;;5034038;28;20877;-68
2023/07/11 02:15:50;;;;;;;5.63;5.23;;;29.60;59.20;;;;;;5041477;28;20469;-68
2023/07/11 02:18:19;;;;;;;6.30;5.80;;;29.60;59.20;;;;;;5032610;28;20464;-69
2023/07/11 02:20:48;;;;;;;6.17;5.67;;;29.60;59.30;;;;;;5013860;28;20540;-69
2023/07/11 02:23:17;;;;;;;7.00;6.50;;;29.60;59.30;;;;;;5029794;28;20472;-74
2023/07/11 02:25:45;;;;;;;7.80;7.20;;;29.60;59.30;;;;;;5047014;28;20546;-68
2023/07/11 02:28:13;;;;;;;6.57;6.07;;;29.50;59.40;;;;;;5070784;28;20474;-69
2023/07/11 02:30:42;;;;;;;7.37;6.67;;;29.50;59.50;;;;;;5046718;28;20459;-68
2023/07/11 02:33:11;;;;;;;6.47;5.97;;;29.50;59.40;;;;;;5044728;28;21013;-77
2023/07/11 02:35:40;;;;;;;7.03;6.43;;;29.50;59.40;;;;;;5045063;28;20525;-68
2023/07/11 02:38:08;;;;;;;5.90;5.50;;;29.50;59.40;;;;;;5040725;28;20664;-65
2023/07/11 02:40:36;;;;;;;6.50;6.00;;;29.50;59.40;;;;;;5035494;28;20460;-70
2023/07/11 02:43:04;;;;;;;7.50;6.83;;;29.50;59.40;;;;;;5029679;28;20446;-66
2023/07/11 02:45:33;;;;;;;6.67;6.10;;;29.50;59.50;;;;;;5045634;28;20474;-68
2023/07/11 02:48:01;;;;;;;7.00;6.50;;;29.40;59.50;;;;;;5046602;28;20450;-65
2023/07/11 02:50:31;;;;;;;6.80;6.30;;;29.50;59.40;;;;;;5042332;28;20953;-66
2023/07/11 02:52:59;;;;;;;6.17;5.67;;;29.50;59.40;;;;;;5059746;28;20452;-65
2023/07/11 02:55:27;;;;;;;7.27;6.77;;;29.50;59.40;;;;;;5047618;28;20969;-68
2023/07/11 02:57:55;;;;;;;6.77;6.27;;;29.50;59.40;;;;;;5051367;28;20447;-66
2023/07/11 03:00:23;;;;;;;6.37;5.87;;;29.50;59.40;;;;;;5040583;28;20452;-66
2023/07/11 03:02:52;;;;;;;5.30;5.00;;;29.50;59.40;;;;;;5032943;28;20465;-66
2023/07/11 03:05:22;;;;;;;7.13;6.63;;;29.40;59.40;;;;;;5038465;28;20454;-67
2023/07/11 03:07:52;;;;;;;6.37;5.97;;;29.40;59.40;;;;;;5048839;28;20529;-67
2023/07/11 03:10:20;;;;;;;6.80;6.30;;;29.40;59.40;;;;;;5028480;28;20885;-66
2023/07/11 03:12:48;;;;;;;7.03;5.53;;;29.40;59.40;;;;;;5048620;28;20453;-66
2023/07/11 03:15:16;;;;;;;6.83;6.27;;;29.40;59.40;;;;;;5055174;28;20525;-65
2023/07/11 03:17:44;;;;;;;6.27;5.80;;;29.40;59.30;;;;;;5071070;28;20487;-65
2023/07/11 03:20:12;;;;;;;6.33;5.83;;;29.40;59.30;;;;;;5049960;28;20467;-70
2023/07/11 03:22:41;;;;;;;6.47;6.03;;;29.40;59.30;;;;;;5036733;28;20421;-66
2023/07/11 03:25:10;;;;;;;6.60;5.77;;;29.40;59.30;;;;;;5053577;28;20456;-66
2023/07/11 03:27:38;;;;;;;6.57;6.07;;;29.40;59.30;;;;;;5034808;28;20447;-66
2023/07/11 03:30:08;;;;;;;6.90;6.40;;;29.40;59.30;;;;;;5036705;28;20469;-72
2023/07/11 03:32:36;;;;;;;6.50;6.00;;;29.40;59.30;;;;;;5047933;28;20472;-66
2023/07/11 03:35:05;;;;;;;7.73;7.13;;;29.40;59.30;;;;;;5039614;28;20445;-67
2023/07/11 03:37:33;;;;;;;7.00;6.33;;;29.40;59.30;;;;;;5038858;28;20507;-66
2023/07/11 03:40:02;;;;;;;6.77;6.23;;;29.40;59.30;;;;;;5042687;28;20454;-66
2023/07/11 03:42:32;;;;;;;6.20;5.70;;;29.40;59.30;;;;;;5054354;28;20446;-66
2023/07/11 03:45:00;;;;;;;6.37;5.87;;;29.40;59.30;;;;;;5054312;28;20815;-66
2023/07/11 03:47:28;;;;;;;6.17;5.77;;;29.30;59.30;;;;;;5037941;28;20460;-71
2023/07/11 03:49:57;;;;;;;6.63;6.07;;;29.30;59.30;;;;;;5035117;28;20494;-70
2023/07/11 03:52:25;;;;;;;6.67;6.10;;;29.30;59.30;;;;;;5034400;28;20483;-65
2023/07/11 03:54:53;;;;;;;6.20;5.70;;;29.30;59.30;;;;;;5041140;28;20462;-68
2023/07/11 03:57:21;;;;;;;7.23;6.60;;;29.30;59.30;;;;;;5044928;28;20473;-66
2023/07/11 03:59:51;;;;;;;6.53;6.03;;;29.30;59.30;;;;;;5049809;28;20517;-67
2023/07/11 04:02:19;;;;;;;6.87;6.27;;;29.30;59.30;;;;;;5048217;28;21014;-65
2023/07/11 04:04:47;;;;;;;6.20;5.80;;;29.30;59.30;;;;;;5050664;28;20466;-67
2023/07/11 04:07:16;;;;;;;8.47;7.70;;;29.30;59.30;;;;;;5058597;28;20469;-66
2023/07/11 04:09:44;;;;;;;6.80;6.30;;;29.30;59.40;;;;;;5053193;28;20434;-72
2023/07/11 04:12:12;;;;;;;6.77;6.03;;;29.20;59.40;;;;;;5053139;28;20460;-65
2023/07/11 04:14:40;;;;;;;6.90;6.30;;;29.20;59.40;;;;;;5053820;28;20454;-77
2023/07/11 04:17:10;;;;;;;7.03;6.33;;;29.20;59.50;;;;;;5053638;28;20478;-65
2023/07/11 04:19:38;;;;;;;7.57;6.87;;;29.20;59.50;;;;;;5053429;28;20833;-66
2023/07/11 04:22:06;;;;;;;6.80;6.30;;;29.20;59.50;;;;;;5048301;28;20462;-73
2023/07/11 04:24:35;;;;;;;7.27;6.67;;;29.20;59.50;;;;;;5051169;28;20461;-66
2023/07/11 04:27:03;;;;;;;7.53;6.83;;;29.20;59.50;;;;;;5045043;28;20987;-67
2023/07/11 04:29:32;;;;;;;6.37;5.90;;;29.20;59.50;;;;;;5056318;28;20496;-65
2023/07/11 04:32:00;;;;;;;7.00;6.50;;;29.20;59.50;;;;;;5044960;28;20939;-66
2023/07/11 04:34:29;;;;;;;7.43;6.83;;;29.20;59.60;;;;;;5038718;28;20456;-68
2023/07/11 04:36:57;;;;;;;6.90;6.30;;;29.20;59.60;;;;;;5051987;28;20579;-68
2023/07/11 04:39:26;;;;;;;7.00;6.40;;;29.20;59.60;;;;;;5053114;28;20523;-66
2023/07/11 04:41:54;;;;;;;7.67;7.07;;;29.20;59.60;;;;;;5033991;28;20866;-70
2023/07/11 04:44:22;;;;;;;7.80;7.10;;;29.20;59.70;;;;;;5053595;28;20466;-63
2023/07/11 04:46:50;;;;;;;7.50;6.80;;;29.20;59.70;;;;;;5047149;28;20618;-74
2023/07/11 04:49:19;;;;;;;6.70;6.10;;;29.20;59.80;;;;;;5054898;28;20469;-65
2023/07/11 04:51:50;;;;;;;8.33;7.63;;;29.20;59.80;;;;;;5043299;28;20484;-66
2023/07/11 04:54:18;;;;;;;7.83;6.73;;;29.10;59.80;;;;;;5040684;28;20948;-66
2023/07/11 04:56:56;;;;;;;6.37;5.87;;;29.10;59.80;;;;;;5048712;28;20472;-72
2023/07/11 04:59:24;;;;;;;6.97;6.47;;;29.10;59.90;;;;;;5046747;28;20517;-66
2023/07/11 05:01:53;;;;;;;8.00;7.30;;;29.10;59.90;;;;;;5041664;28;20464;-66
2023/07/11 05:04:21;;;;;;;8.07;7.37;;;29.10;59.90;;;;;;5045296;28;20550;-66
2023/07/11 05:06:51;;;;;;;8.50;7.33;;;29.10;59.90;;;;;;5035213;28;20480;-67
2023/07/11 05:09:19;;;;;;;6.90;6.20;;;29.10;59.90;;;;;;5042956;28;20454;-67
2023/07/11 05:11:47;;;;;;;7.07;6.50;;;29.20;59.90;;;;;;5046842;28;20519;-72
2023/07/11 05:14:16;;;;;;;7.63;6.93;;;29.20;59.80;;;;;;5052337;28;20473;-68
2023/07/11 05:16:44;;;;;;;7.70;6.57;;;29.10;59.90;;;;;;5048313;28;20485;-68
2023/07/11 05:19:12;;;;;;;6.67;6.03;;;29.20;59.80;;;;;;5057374;28;21021;-66
2023/07/11 05:21:40;;;;;;;7.10;6.40;;;29.20;59.80;;;;;;5042627;28;20963;-73
2023/07/11 05:24:10;;;;;;;7.27;6.67;;;29.20;59.80;;;;;;5047363;28;20450;-66
2023/07/11 05:26:39;;;;;;;7.30;6.60;;;29.20;59.80;;;;;;5031244;28;20901;-69
2023/07/11 05:29:08;;;;;;;7.20;6.70;;;29.20;59.80;;;;;;5029992;28;20533;-75
2023/07/11 05:31:36;;;;;;;7.50;6.90;;;29.20;59.80;;;;;;5040622;28;20458;-75
2023/07/11 05:34:05;;;;;;;6.30;5.80;;;29.20;59.70;;;;;;5039400;28;20459;-65
2023/07/11 05:36:34;;;;;;;7.73;6.97;;;29.20;59.70;;;;;;5043472;28;21013;-68
2023/07/11 05:39:04;;;;;;;8.57;7.70;;;29.20;59.70;;;;;;5039673;28;20492;-72
2023/07/11 05:41:36;;;;;;;6.87;6.23;;;29.20;59.60;;;;;;5051372;28;20466;-71
2023/07/11 05:44:05;;;;;;;6.67;6.07;;;29.20;59.60;;;;;;5036095;28;20954;-67
2023/07/11 05:46:33;;;;;;;6.33;5.83;;;29.30;59.60;;;;;;5043346;28;20509;-67
2023/07/11 05:49:03;;;;;;;6.23;5.83;;;29.30;59.50;;;;;;5039393;28;20458;-69
2023/07/11 05:51:31;;;;;;;5.80;5.30;;;29.30;59.60;;;;;;5036620;28;20489;-68
2023/07/11 05:54:00;;;;;;;6.23;5.73;;;29.30;59.60;;;;;;5043568;28;20465;-71
2023/07/11 05:56:28;;;;;;;6.80;6.20;;;29.30;59.50;;;;;;5049315;28;20450;-73
2023/07/11 05:58:59;;;;;;;7.70;7.10;;;29.30;59.50;;;;;;5038207;28;20469;-74
2023/07/11 06:01:29;;;;;;;7.27;5.60;;;29.30;59.50;;;;;;5042347;28;20491;-67
2023/07/11 06:04:08;;;;;;;7.13;6.53;;;29.20;59.60;;;;;;5033081;28;20517;-79
2023/07/11 06:06:41;;;;;;;6.73;6.23;;;29.20;59.60;;;;;;5036061;28;20458;-76
2023/07/11 06:09:11;;;;;;;6.80;6.20;;;29.20;59.50;;;;;;5039352;28;20557;-67
2023/07/11 06:11:40;;;;;;;6.77;6.27;;;29.30;59.50;;;;;;5040325;28;20458;-71
2023/07/11 06:14:10;;;;;;;6.60;6.10;;;29.30;59.50;;;;;;5041881;28;20524;-73
2023/07/11 06:16:41;;;;;;;8.70;6.47;;;29.30;59.50;;;;;;5045620;28;20456;-78
2023/07/11 06:19:09;;;;;;;8.53;7.63;;;29.30;59.50;;;;;;5052126;28;20639;-68
2023/07/11 06:21:37;;;;;;;6.90;6.20;;;29.30;59.50;;;;;;5044228;28;20472;-75
2023/07/11 06:24:06;;;;;;;6.80;6.30;;;29.30;59.50;;;;;;5050235;28;20468;-73
2023/07/11 06:26:34;;;;;;;7.53;6.83;;;29.40;59.60;;;;;;5039071;28;20464;-68
2023/07/11 06:29:03;;;;;;;6.50;6.00;;;29.40;59.60;;;;;;5046580;28;20522;-71
2023/07/11 06:31:32;;;;;;;6.43;5.90;;;29.40;59.60;;;;;;5044527;28;20468;-73
2023/07/11 06:34:01;;;;;;;6.70;6.20;;;29.40;59.60;;;;;;5034281;28;20856;-71
2023/07/11 06:36:29;;;;;;;7.67;7.07;;;29.40;59.60;;;;;;5039912;28;20487;-68
2023/07/11 06:38:57;;;;;;;7.40;6.70;;;29.40;59.70;;;;;;5037063;28;20492;-73
2023/07/11 06:41:28;;;;;;;7.13;6.53;;;29.40;59.60;;;;;;5043627;28;20465;-68
2023/07/11 06:43:57;;;;;;;7.43;6.80;;;29.40;59.80;;;;;;5049436;28;20445;-74
2023/07/11 06:46:25;;;;;;;7.47;5.80;;;29.40;59.70;;;;;;5054178;28;20456;-70
2023/07/11 06:48:58;;;;;;;6.40;5.90;;;29.40;59.80;;;;;;5052677;28;20461;-71
2023/07/11 06:51:26;;;;;;;7.60;7.00;;;29.40;59.70;;;;;;5057048;28;20436;-70
2023/07/11 06:53:54;;;;;;;7.13;6.53;;;29.40;59.80;;;;;;5056790;28;20468;-68
2023/07/11 06:56:23;;;;;;;8.00;6.67;;;29.40;59.70;;;;;;5040209;28;20817;-70
2023/07/11 06:58:51;;;;;;;7.20;6.70;;;29.40;59.80;;;;;;5048332;28;20480;-74
2023/07/11 07:01:22;;;;;;;7.93;7.13;;;29.50;59.80;;;;;;5041357;28;20916;-74
2023/07/11 07:04:06;;;;;;;7.00;6.50;;;29.40;59.80;;;;;;5049056;28;20551;-69
2023/07/11 07:06:35;;;;;;;7.13;6.53;;;29.40;59.80;;;;;;5052600;28;20465;-70
2023/07/11 07:09:04;;;;;;;6.67;6.17;;;29.40;59.80;;;;;;5048112;28;20495;-69
2023/07/11 07:11:35;;;;;;;7.37;6.70;;;29.40;59.80;;;;;;5055096;28;20461;-68
2023/07/11 07:14:03;;;;;;;7.50;6.90;;;29.40;59.80;;;;;;5048590;28;20458;-68
2023/07/11 07:16:34;;;;;;;7.50;6.90;;;29.40;59.80;;;;;;5050350;28;20457;-69
2023/07/11 07:19:03;;;;;;;6.70;6.20;;;29.40;59.80;;;;;;5053681;28;20565;-71
2023/07/11 07:21:34;;;;;;;7.20;6.70;;;29.40;59.80;;;;;;5061342;28;20466;-67
2023/07/11 07:24:02;;;;;;;7.50;6.80;;;29.40;59.90;;;;;;5053941;28;20794;-70
2023/07/11 07:26:32;;;;;;;7.43;6.77;;;29.40;59.80;;;;;;5059247;28;20796;-67
2023/07/11 07:29:01;;;;;;;7.70;6.83;;;29.40;59.90;;;;;;5049866;28;20488;-67
2023/07/11 07:31:30;;;;;;;10.93;7.23;;;29.40;59.80;;;;;;5052839;28;20469;-68
2023/07/11 07:33:58;;;;;;;6.77;6.23;;;29.50;59.80;;;;;;5055125;28;20481;-72
2023/07/11 07:36:26;;;;;;;7.87;7.30;;;29.50;59.80;;;;;;5056598;28;20512;-72
2023/07/11 07:38:56;;;;;;;11.73;8.80;;;29.50;59.80;;;;;;5038910;28;20547;-80
2023/07/11 07:41:27;;;;;;;16.00;10.63;;;29.50;60.00;;;;;;5053067;28;20454;-72
2023/07/11 07:43:55;;;;;;;15.07;11.53;;;29.40;61.30;;;;;;5044740;28;20958;-71
2023/07/11 07:46:24;;;;;;;10.03;8.70;;;29.50;63.30;;;;;;5051900;28;20489;-69
2023/07/11 07:48:54;;;;;;;11.47;9.00;;;29.50;63.80;;;;;;5047277;28;20493;-68
2023/07/11 07:51:22;;;;;;;15.37;9.10;;;29.60;63.20;;;;;;5052929;28;20967;-68
2023/07/11 07:53:50;;;;;;;13.90;7.73;;;29.60;63.20;;;;;;5044836;28;20463;-67
2023/07/11 07:56:22;;;;;;;15.07;8.73;;;29.60;63.00;;;;;;5050446;28;20457;-67
2023/07/11 07:58:51;;;;;;;13.17;9.00;;;29.60;62.90;;;;;;5042188;28;20483;-74
2023/07/11 08:01:21;;;;;;;9.63;8.63;;;29.60;62.90;;;;;;5045765;28;20476;-73
2023/07/11 08:03:50;;;;;;;9.30;7.40;;;29.60;62.90;;;;;;5049650;28;20508;-69
2023/07/11 08:06:19;;;;;;;11.00;8.50;;;29.60;62.70;;;;;;5045851;28;20562;-67
2023/07/11 08:08:48;;;;;;;12.80;9.57;;;29.60;62.60;;;;;;5052299;28;20476;-68
2023/07/11 08:11:20;;;;;;;10.27;8.23;;;29.60;62.50;;;;;;5043732;28;20808;-75
2023/07/11 08:13:49;;;;;;;9.67;8.80;;;29.70;62.30;;;;;;5046673;28;20452;-68
2023/07/11 08:16:28;;;;;;;8.40;7.60;;;29.70;62.30;;;;;;5055124;28;20460;-67
2023/07/11 08:19:04;;;;;;;8.13;7.40;;;29.70;62.20;;;;;;5051963;28;20541;-71
2023/07/11 08:21:35;;;;;;;9.80;8.80;;;29.70;62.30;;;;;;5032155;28;20486;-72
2023/07/11 08:24:04;;;;;;;9.20;8.40;;;29.70;62.20;;;;;;5048543;28;20517;-67
2023/07/11 08:26:34;;;;;;;7.13;6.53;;;29.70;62.10;;;;;;5049955;28;21012;-70
2023/07/11 08:29:02;;;;;;;7.93;7.30;;;29.70;62.00;;;;;;5042108;28;20455;-74
2023/07/11 08:31:47;;;;;;;10.53;8.50;;;29.70;62.00;;;;;;5042285;28;20468;-71
2023/07/11 08:34:15;;;;;;;10.27;8.23;;;29.80;61.90;;;;;;5047369;28;20456;-71
2023/07/11 08:36:45;;;;;;;9.00;8.10;;;29.80;61.80;;;;;;5041941;28;20468;-70
2023/07/11 08:39:14;;;;;;;13.83;7.20;;;29.80;61.70;;;;;;5053884;28;20555;-70
2023/07/11 08:41:45;;;;;;;8.07;7.27;;;29.80;61.70;;;;;;5029800;28;20484;-70
2023/07/11 08:44:17;;;;;;;8.20;7.43;;;29.80;61.60;;;;;;5045404;28;20458;-70
2023/07/11 08:46:55;;;;;;;8.90;7.93;;;29.80;61.60;;;;;;5048493;28;20456;-68
2023/07/11 08:49:30;;;;;;;7.00;6.30;;;29.90;61.50;;;;;;5050075;28;20529;-70
2023/07/11 08:52:01;;;;;;;8.53;7.47;;;29.90;61.50;;;;;;5042638;28;20489;-69
2023/07/11 08:54:33;;;;;;;8.20;7.40;;;29.90;61.40;;;;;;5046459;28;20461;-70
2023/07/11 08:57:03;;;;;;;9.47;8.17;;;29.90;61.40;;;;;;5048578;28;20457;-71
2023/07/11 08:59:41;;;;;;;8.40;7.77;;;29.90;61.30;;;;;;5046165;28;20473;-69
2023/07/11 09:02:24;;;;;;;8.30;7.20;;;29.90;61.30;;;;;;5043933;28;20460;-73
2023/07/11 09:04:53;;;;;;;8.90;8.20;;;29.90;61.30;;;;;;5041213;28;20464;-70
2023/07/11 09:07:32;;;;;;;7.57;6.97;;;29.90;61.30;;;;;;5046519;28;20465;-70
2023/07/11 09:10:01;;;;;;;15.40;8.57;;;29.90;61.30;;;;;;5044717;28;20464;-71
2023/07/11 09:12:42;;;;;;;8.47;7.73;;;29.90;61.20;;;;;;5048298;28;20507;-73
2023/07/11 09:15:17;;;;;;;9.20;8.40;;;30.00;61.40;;;;;;5044501;28;20466;-73
2023/07/11 09:17:58;;;;;;;8.10;7.30;;;30.00;61.30;;;;;;5043465;28;20461;-72
2023/07/11 09:20:46;;;;;;;8.47;7.77;;;30.00;61.30;;;;;;5026315;28;20480;-73
2023/07/11 09:23:32;;;;;;;7.50;7.00;;;30.10;61.30;;;;;;5030911;28;20872;-73
2023/07/11 09:26:13;;;;;;;8.30;7.60;;;30.10;61.20;;;;;;5049256;28;20559;-73
2023/07/11 09:28:45;;;;;;;8.20;7.40;;;30.10;61.20;;;;;;5048835;28;20467;-74
2023/07/11 09:31:19;;;;;;;7.90;7.20;;;30.10;61.20;;;;;;5043281;28;20457;-73
2023/07/11 09:33:52;;;;;;;7.57;6.97;;;30.10;61.20;;;;;;5044470;28;20461;-72
2023/07/11 09:36:22;;;;;;;8.33;7.57;;;30.10;61.20;;;;;;5046204;28;20457;-71
2023/07/11 09:38:56;;;;;;;8.00;7.40;;;30.10;61.10;;;;;;5046074;28;20505;-73
2023/07/11 09:41:31;;;;;;;7.90;7.27;;;30.10;61.10;;;;;;5045552;28;20544;-74
2023/07/11 09:44:18;;;;;;;7.77;7.17;;;30.10;61.20;;;;;;5044733;28;20457;-75
2023/07/11 09:46:48;;;;;;;8.60;7.90;;;30.20;61.10;;;;;;5042952;28;20455;-74
2023/07/11 09:49:20;;;;;;;8.80;8.10;;;30.20;61.10;;;;;;5046206;28;20451;-74
2023/07/11 09:51:52;;;;;;;8.30;7.50;;;30.30;61.10;;;;;;5035222;28;20506;-72
2023/07/11 09:54:23;;;;;;;8.63;7.93;;;30.30;61.00;;;;;;5040949;28;20490;-73
2023/07/11 09:56:51;;;;;;;8.10;7.50;;;30.30;61.00;;;;;;5047148;28;20492;-73
2023/07/11 09:59:21;;;;;;;8.43;7.73;;;30.30;60.80;;;;;;5047806;28;20477;-76
2023/07/11 10:01:53;;;;;;;7.80;7.20;;;30.40;60.80;;;;;;5044755;28;20459;-74
2023/07/11 10:04:24;;;;;;;8.50;7.80;;;30.40;60.80;;;;;;5048860;28;20464;-75
2023/07/11 10:06:58;;;;;;;8.07;7.37;;;30.40;60.70;;;;;;5043620;28;20460;-73
2023/07/11 10:09:29;;;;;;;7.60;7.07;;;30.40;60.70;;;;;;5043383;28;20453;-72
2023/07/11 10:11:59;;;;;;;8.83;8.00;;;30.40;60.70;;;;;;5028647;28;20819;-71
2023/07/11 10:14:32;;;;;;;7.37;6.87;;;30.40;60.70;;;;;;5045226;28;20456;-72
2023/07/11 10:17:04;;;;;;;8.50;7.80;;;30.40;60.70;;;;;;5032845;28;20905;-73
2023/07/11 10:19:34;;;;;;;8.73;7.90;;;30.40;60.70;;;;;;5047889;28;20996;-74
2023/07/11 10:22:02;;;;;;;8.77;7.97;;;30.40;60.70;;;;;;5044852;28;20536;-72
2023/07/11 10:24:39;;;;;;;7.80;7.10;;;30.40;60.70;;;;;;5047486;28;20457;-76
2023/07/11 10:27:13;;;;;;;8.57;7.87;;;30.40;60.70;;;;;;5044994;28;20980;-72
2023/07/11 10:29:48;;;;;;;7.23;6.73;;;30.40;60.70;;;;;;5040513;28;20466;-72
2023/07/11 10:32:25;;;;;;;8.67;7.90;;;30.50;60.70;;;;;;5044292;28;20461;-72
2023/07/11 10:34:57;;;;;;;9.10;8.40;;;30.50;60.60;;;;;;5039637;28;20965;-71
2023/07/11 10:37:31;;;;;;;7.27;6.70;;;30.50;60.60;;;;;;5044317;28;20489;-74
2023/07/11 10:40:08;;;;;;;7.87;7.17;;;30.50;60.60;;;;;;5041461;28;20466;-72
2023/07/11 10:42:42;;;;;;;9.10;8.30;;;30.50;60.50;;;;;;5046423;28;20468;-71
2023/07/11 10:45:15;;;;;;;7.83;7.33;;;30.50;60.50;;;;;;5047598;28;20478;-73
2023/07/11 10:47:52;;;;;;;15.03;7.23;;;30.50;60.40;;;;;;5046018;28;20965;-71
2023/07/11 10:50:32;;;;;;;8.87;8.17;;;30.40;60.40;;;;;;5042526;28;20469;-73
2023/07/11 10:53:05;;;;;;;8.40;7.70;;;30.40;60.40;;;;;;5045428;28;20461;-72
2023/07/11 10:55:42;;;;;;;8.73;8.03;;;30.40;60.30;;;;;;5045904;28;20469;-71
2023/07/11 10:58:11;;;;;;;8.50;7.87;;;30.40;60.30;;;;;;5040593;28;20462;-72
2023/07/11 11:00:52;;;;;;;10.13;7.27;;;30.50;60.30;;;;;;5044295;28;20988;-73
2023/07/11 11:03:37;;;;;;;7.37;6.87;;;30.50;60.30;;;;;;5043127;28;20573;-69
2023/07/11 11:06:31;;;;;;;7.90;7.27;;;30.50;60.30;;;;;;5041726;28;20541;-72
2023/07/11 11:09:07;;;;;;;8.43;7.63;;;30.50;60.20;;;;;;5042880;28;20461;-70
2023/07/11 11:11:46;;;;;;;9.00;8.20;;;30.50;60.00;;;;;;5043379;28;20456;-75
2023/07/11 11:14:21;;;;;;;7.30;6.80;;;30.50;60.00;;;;;;5032087;28;20800;-69
2023/07/11 11:17:21;;;;;;;8.40;7.63;;;30.50;59.80;;;;;;5036690;28;20550;-68
2023/07/11 11:20:07;;;;;;;9.23;7.33;;;30.50;59.60;;;;;;5037271;28;20982;-70
2023/07/11 11:22:43;;;;;;;7.87;7.13;;;30.50;59.80;;;;;;5067278;28;20457;-70
2023/07/11 11:25:20;;;;;;;8.27;7.67;;;30.50;59.90;;;;;;5022249;28;20873;-70
2023/07/11 11:27:56;;;;;;;7.40;6.80;;;30.50;59.90;;;;;;5046464;28;20464;-70
2023/07/11 11:30:33;;;;;;;7.67;6.90;;;30.50;59.60;;;;;;5046346;28;20468;-74
2023/07/11 11:33:16;;;;;;;7.70;7.10;;;30.50;59.80;;;;;;5052386;28;20458;-70
2023/07/11 11:35:53;;;;;;;8.30;7.60;;;30.50;59.90;;;;;;5054942;28;20451;-70
2023/07/11 11:38:32;;;;;;;8.93;8.30;;;30.50;59.90;;;;;;5039478;28;20495;-73
2023/07/11 11:41:05;;;;;;;7.93;7.33;;;30.50;59.90;;;;;;5056771;28;20481;-71
2023/07/11 11:43:34;;;;;;;8.80;8.10;;;30.50;60.00;;;;;;5052039;28;20484;-71
2023/07/11 11:46:22;;;;;;;8.40;7.80;;;30.50;60.00;;;;;;5036390;28;20451;-73
2023/07/11 11:48:59;;;;;;;7.70;7.00;;;30.40;60.00;;;;;;5044500;28;20543;-71
2023/07/11 11:51:31;;;;;;;7.80;7.13;;;30.50;60.00;;;;;;5051603;28;20451;-76
2023/07/11 11:54:06;;;;;;;8.13;7.43;;;30.50;59.90;;;;;;5049065;28;20455;-71
2023/07/11 11:56:40;;;;;;;8.77;8.10;;;30.50;59.90;;;;;;5044011;28;20459;-71
2023/07/11 11:59:17;;;;;;;7.80;7.30;;;30.50;59.90;;;;;;5041087;28;20461;-71
2023/07/11 12:02:11;;;;;;;7.80;7.30;;;30.60;59.80;;;;;;5038966;28;20477;-71
2023/07/11 12:05:05;;;;;;;7.73;7.23;;;30.60;59.80;;;;;;5043462;28;20458;-72
2023/07/11 12:07:36;;;;;;;7.93;7.33;;;30.60;59.70;;;;;;5030944;28;20827;-71
2023/07/11 12:10:24;;;;;;;8.20;7.60;;;30.60;59.70;;;;;;5047530;28;20470;-72
2023/07/11 12:13:15;;;;;;;7.07;6.57;;;30.70;59.60;;;;;;5037051;28;20540;-71
2023/07/11 12:15:49;;;;;;;7.47;6.97;;;30.90;59.40;;;;;;5047368;28;20497;-73
2023/07/11 12:18:38;;;;;;;7.20;6.70;;;31.00;59.20;;;;;;5038396;28;20512;-71
2023/07/11 12:21:32;;;;;;;7.97;7.47;;;31.20;58.90;;;;;;5044673;28;20579;-73
2023/07/11 12:24:23;;;;;;;8.63;7.73;;;31.40;58.60;;;;;;5051469;28;21131;-72
2023/07/11 12:26:55;;;;;;;9.30;8.60;;;31.70;58.60;;;;;;5042173;28;20461;-71
2023/07/11 12:29:40;;;;;;;9.00;8.20;;;32.20;57.00;;;;;;5027573;28;20817;-72
2023/07/11 12:32:29;;;;;;;8.43;7.83;;;32.40;56.90;;;;;;5042275;28;20512;-71
2023/07/11 12:34:58;;;;;;;8.90;8.20;;;32.40;57.00;;;;;;5046564;28;20464;-73
2023/07/11 12:37:28;;;;;;;10.00;9.00;;;32.40;56.70;;;;;;5046534;28;20490;-72
2023/07/11 12:40:11;;;;;;;8.13;7.53;;;32.30;56.70;;;;;;5044331;28;20558;-72
2023/07/11 12:42:49;;;;;;;8.30;7.60;;;32.10;56.90;;;;;;5035423;28;20817;-72
2023/07/11 12:45:20;;;;;;;8.83;8.23;;;32.00;57.20;;;;;;5042551;28;20520;-71
2023/07/11 12:47:51;;;;;;;9.13;8.43;;;32.00;57.40;;;;;;5048854;28;20454;-72
2023/07/11 12:50:23;;;;;;;9.50;8.60;;;31.80;57.70;;;;;;5044088;28;20463;-72
2023/07/11 12:53:01;;;;;;;9.13;8.40;;;31.70;58.00;;;;;;5043072;28;20459;-72
2023/07/11 12:55:30;;;;;;;9.20;8.30;;;31.70;58.10;;;;;;5046180;28;20520;-71
2023/07/11 12:57:59;;;;;;;8.67;7.97;;;31.60;58.50;;;;;;5046875;28;20467;-70
2023/07/11 13:00:29;;;;;;;8.23;7.43;;;31.60;58.50;;;;;;5041188;28;20483;-73
2023/07/11 13:03:09;;;;;;;8.07;7.23;;;31.60;58.30;;;;;;5047533;28;20447;-72
2023/07/11 13:05:38;;;;;;;9.00;8.30;;;31.50;58.50;;;;;;5044972;28;20480;-79
2023/07/11 13:08:15;;;;;;;8.63;7.90;;;31.50;58.70;;;;;;5047792;28;20451;-80